Port Barrington, Illinois
Current Conditions -  °F | °C
As of 1:52 AM on Saturday 20 Dec 2014 (Local Time) from KPWK Reporting Station
Overcast Overcast  
Wind Chill: 29°   Ceiling: 2700
Heat Index: 29°   Visibility: 9mi
Dew Point: 23°   Wind: 0mph
Humidity: 78%   Direction: NA
Pressure: 30.29"   Gusts: NA
Location:  42.1512°N, 88.1636°W
Report Text: KPWK 200752Z AUTO 00000KT 9SM OVC027 M02/M05 A3029 RMK AO2 SLP266 T10171050
Loading
Personal Weather Stations






























Interactive Weather Map New forecast layout! Learn more

10-Day Weather Forecast

Advertisements
Track Severe Weather on mobile